createdAt,value
2018-10-21T00:02:16.638Z,95.62
2018-10-21T00:04:45.786Z,95.52
2018-10-21T00:07:15.633Z,95.75
2018-10-21T00:09:44.432Z,95.25
2018-10-21T00:12:13.215Z,95.13
2018-10-21T00:14:42.049Z,95.49
2018-10-21T00:17:11.704Z,96.16
2018-10-21T00:19:41.010Z,95.43
2018-10-21T00:22:09.843Z,95.79
2018-10-21T00:24:38.694Z,95.69
2018-10-21T00:27:08.680Z,95.54
2018-10-21T00:29:38.008Z,95.73
2018-10-21T00:32:06.875Z,95.44
2018-10-21T00:34:35.697Z,95.75
2018-10-21T00:37:05.451Z,96.32
2018-10-21T00:39:34.283Z,95.85
2018-10-21T00:42:03.139Z,96.30
2018-10-21T00:44:33.063Z,96.50
2018-10-21T00:47:02.312Z,96.56
2018-10-21T00:49:31.166Z,96.48
2018-10-21T00:52:00.056Z,95.96
2018-10-21T00:54:28.847Z,96.84
2018-10-21T00:56:57.989Z,96.54
2018-10-21T00:59:26.838Z,96.55
2018-10-21T01:01:55.734Z,96.01
2018-10-21T01:04:24.591Z,96.78
2018-10-21T01:06:53.445Z,96.34
2018-10-21T01:09:22.287Z,96.51
2018-10-21T01:11:51.550Z,96.96
2018-10-21T01:14:20.374Z,96.19
2018-10-21T01:16:49.171Z,95.89
2018-10-21T01:19:18.651Z,96.47
2018-10-21T01:21:47.471Z,96.05
2018-10-21T01:24:16.295Z,96.52
2018-10-21T01:26:45.111Z,97.02
2018-10-21T01:29:14.415Z,97.44
2018-10-21T01:31:43.232Z,98.00
2018-10-21T01:34:12.118Z,97.66
2018-10-21T01:36:41.317Z,97.06
2018-10-21T01:39:11.463Z,96.26
2018-10-21T01:41:40.431Z,96.73
2018-10-21T01:44:09.590Z,96.14
2018-10-21T01:46:38.472Z,96.51
2018-10-21T01:49:07.320Z,96.74
2018-10-21T01:51:36.492Z,96.21
2018-10-21T01:54:05.650Z,96.64
2018-10-21T01:56:34.595Z,97.35
2018-10-21T01:59:03.466Z,97.20
2018-10-21T02:01:32.357Z,96.60
2018-10-21T02:04:01.199Z,97.37
2018-10-21T02:06:29.994Z,97.68
2018-10-21T02:08:58.938Z,97.43
2018-10-21T02:11:28.751Z,97.87
2018-10-21T02:13:57.892Z,97.78
2018-10-21T02:16:26.765Z,97.79
2018-10-21T02:18:55.589Z,97.90
2018-10-21T02:21:24.394Z,97.52
2018-10-21T02:23:53.239Z,97.80
2018-10-21T02:26:22.112Z,97.76
2018-10-21T02:28:51.263Z,98.26
2018-10-21T02:31:20.105Z,99.37
2018-10-21T02:33:48.968Z,98.46
2018-10-21T02:36:18.301Z,98.80
2018-10-21T02:38:47.155Z,99.00
2018-10-21T02:41:29.460Z,98.65
2018-10-21T02:43:58.319Z,99.00
2018-10-21T02:46:27.434Z,98.55
2018-10-21T02:48:57.634Z,98.08
2018-10-21T02:51:26.532Z,98.37
2018-10-21T02:53:55.384Z,98.64
2018-10-21T02:56:24.202Z,98.58
2018-10-21T02:58:53.075Z,98.71
2018-10-21T03:01:21.927Z,98.12
2018-10-21T03:03:51.299Z,98.31
2018-10-21T03:06:21.058Z,98.71
2018-10-21T03:08:49.915Z,98.86
2018-10-21T03:11:18.761Z,98.64
2018-10-21T03:13:48.052Z,98.42
2018-10-21T03:16:16.915Z,98.72
2018-10-21T03:21:33.111Z,98.86
2018-10-21T03:24:01.954Z,99.18
2018-10-21T03:26:30.804Z,99.00
2018-10-21T03:28:59.658Z,99.14
2018-10-21T03:31:28.498Z,98.35
2018-10-21T03:33:57.537Z,98.93
2018-10-21T03:36:26.469Z,99.36
2018-10-21T03:38:55.321Z,98.62
2018-10-21T03:41:24.137Z,99.16
2018-10-21T03:43:53.388Z,99.42
2018-10-21T03:46:22.198Z,98.76
2018-10-21T03:48:51.068Z,98.42
2018-10-21T03:51:19.930Z,98.98
2018-10-21T03:53:48.788Z,98.63
2018-10-21T03:56:17.680Z,99.52
2018-10-21T03:58:46.855Z,98.52
2018-10-21T04:01:15.794Z,98.38
2018-10-21T04:03:44.686Z,99.21
2018-10-21T04:06:14.035Z,99.05
2018-10-21T04:08:43.427Z,99.25
2018-10-21T04:11:12.326Z,98.25
2018-10-21T04:13:41.191Z,98.45
2018-10-21T04:16:10.145Z,98.87
2018-10-21T04:18:39.951Z,98.51
2018-10-21T04:21:08.774Z,98.30
2018-10-21T04:23:37.647Z,97.39
2018-10-21T04:26:06.582Z,98.03
2018-10-21T04:28:35.475Z,98.04
2018-10-21T04:31:05.213Z,97.55
2018-10-21T04:33:40.982Z,97.60
2018-10-21T04:36:11.745Z,97.70
2018-10-21T04:38:52.037Z,98.25
2018-10-21T04:41:20.991Z,97.93
2018-10-21T04:43:49.847Z,97.49
2018-10-21T04:46:19.040Z,97.17
2018-10-21T04:48:47.888Z,97.22
2018-10-21T04:51:16.964Z,97.75
2018-10-21T04:53:45.855Z,97.54
2018-10-21T04:56:14.995Z,97.54
2018-10-21T04:58:43.852Z,97.86
2018-10-21T05:01:14.663Z,98.06
2018-10-21T05:03:43.519Z,97.42
2018-10-21T05:06:12.361Z,98.95
2018-10-21T05:08:41.244Z,98.01
2018-10-21T05:11:10.394Z,98.28
2018-10-21T05:13:39.250Z,97.59
2018-10-21T05:16:08.171Z,98.48
2018-10-21T05:18:36.951Z,99.03
2018-10-21T05:21:06.390Z,97.88
2018-10-21T05:23:35.259Z,97.60
2018-10-21T05:26:04.244Z,97.60
2018-10-21T05:28:33.740Z,98.94
2018-10-21T05:31:03.063Z,98.21
2018-10-21T05:33:31.918Z,97.69
2018-10-21T05:36:00.854Z,98.36
2018-10-21T05:38:30.342Z,97.67
2018-10-21T05:40:59.228Z,98.31
2018-10-21T05:43:28.113Z,97.79
2018-10-21T05:45:56.936Z,98.26
2018-10-21T05:48:26.244Z,98.07
2018-10-21T05:50:55.212Z,98.15
2018-10-21T05:53:24.724Z,98.13
2018-10-21T05:55:53.715Z,98.38
2018-10-21T05:58:22.953Z,98.79
2018-10-21T06:00:51.783Z,98.28
2018-10-21T06:03:32.215Z,98.79
2018-10-21T06:06:01.049Z,98.56
2018-10-21T06:08:30.903Z,98.61
2018-10-21T06:11:00.055Z,99.18
2018-10-21T06:13:28.950Z,98.91
2018-10-21T06:15:57.896Z,99.38
2018-10-21T06:18:27.722Z,98.19
2018-10-21T06:21:02.251Z,98.24
2018-10-21T06:23:31.495Z,97.81
2018-10-21T06:26:00.359Z,99.09
2018-10-21T06:28:29.228Z,99.30
2018-10-21T06:30:59.910Z,98.28
2018-10-21T06:33:29.083Z,98.04
2018-10-21T06:35:58.159Z,98.03
2018-10-21T06:38:27.015Z,98.16
2018-10-21T06:40:55.868Z,98.94
2018-10-21T06:43:25.018Z,98.12
2018-10-21T06:45:53.946Z,98.00
2018-10-21T06:48:22.837Z,97.65
2018-10-21T06:50:51.693Z,97.59
2018-10-21T06:53:20.514Z,96.50
2018-10-21T06:55:49.346Z,96.23
2018-10-21T06:58:19.574Z,96.54
2018-10-21T07:00:48.474Z,96.46
2018-10-21T07:03:17.367Z,96.72
2018-10-21T07:06:24.887Z,96.77
2018-10-21T07:08:55.034Z,96.78
2018-10-21T07:11:23.916Z,97.28
2018-10-21T07:13:54.810Z,96.89
2018-10-21T07:16:25.131Z,96.71
2018-10-21T07:18:54.264Z,96.99
2018-10-21T07:21:23.071Z,97.57
2018-10-21T07:23:51.906Z,95.44
2018-10-21T07:26:20.707Z,96.29
2018-10-21T07:28:50.326Z,96.13
2018-10-21T07:31:19.615Z,96.89
2018-10-21T07:33:48.458Z,96.76
2018-10-21T07:36:17.296Z,97.07
2018-10-21T07:38:47.921Z,96.88
2018-10-21T07:41:17.302Z,97.54
2018-10-21T07:43:48.966Z,96.20
2018-10-21T07:46:19.670Z,94.09
2018-10-21T07:48:49.826Z,93.95
2018-10-21T07:51:18.750Z,94.82
2018-10-21T07:53:47.596Z,94.03
2018-10-21T07:56:16.419Z,93.75
2018-10-21T07:58:45.330Z,93.19
2018-10-21T08:01:14.197Z,92.50
2018-10-21T08:03:43.589Z,93.13
2018-10-21T08:06:35.753Z,92.93
2018-10-21T08:09:07.655Z,93.80
2018-10-21T08:11:38.315Z,91.75
2018-10-21T08:14:08.299Z,91.53
2018-10-21T08:16:37.192Z,91.00
2018-10-21T08:19:06.198Z,91.51
2018-10-21T08:21:35.485Z,93.39
2018-10-21T08:24:06.920Z,92.70
2018-10-21T08:26:38.362Z,91.99
2018-10-21T08:29:09.189Z,92.05
2018-10-21T08:31:39.243Z,91.63
2018-10-21T08:34:08.097Z,91.36
2018-10-21T08:36:36.954Z,91.69
2018-10-21T08:39:08.007Z,92.51
2018-10-21T08:41:36.964Z,92.69
2018-10-21T08:44:09.565Z,91.89
2018-10-21T08:46:39.446Z,91.19
2018-10-21T08:49:17.019Z,90.12
2018-10-21T08:51:52.050Z,89.73
2018-10-21T08:54:23.688Z,91.78
2018-10-21T08:56:52.612Z,91.81
2018-10-21T08:59:21.526Z,89.50
2018-10-21T09:01:50.778Z,89.60
2018-10-21T09:04:19.657Z,87.92
2018-10-21T09:06:48.527Z,87.18
2018-10-21T09:09:17.380Z,86.57
2018-10-21T09:11:46.363Z,87.05
2018-10-21T09:14:15.195Z,86.43
2018-10-21T09:16:46.404Z,84.46
2018-10-21T09:19:18.275Z,84.37
2018-10-21T09:21:47.287Z,83.97
2018-10-21T09:24:17.098Z,84.29
2018-10-21T09:26:52.811Z,85.14
2018-10-21T09:29:23.454Z,84.22
2018-10-21T09:31:54.048Z,82.98
2018-10-21T09:34:22.911Z,81.92
2018-10-21T09:36:52.379Z,82.96
2018-10-21T09:39:21.597Z,83.70
2018-10-21T09:41:52.453Z,84.05
2018-10-21T09:44:21.323Z,79.08
2018-10-21T09:46:50.616Z,79.04
2018-10-21T09:49:20.683Z,77.66
2018-10-21T09:51:49.510Z,78.67
2018-10-21T09:54:20.480Z,78.92
2018-10-21T09:56:50.261Z,74.54
2018-10-21T09:59:22.595Z,74.71
2018-10-21T10:01:59.313Z,76.76
2018-10-21T10:04:29.461Z,75.00
2018-10-21T10:06:58.371Z,74.22
2018-10-21T10:09:27.916Z,75.33
2018-10-21T10:11:57.598Z,75.87
2018-10-21T10:14:26.442Z,75.75
2018-10-21T10:16:55.704Z,75.71
2018-10-21T10:19:24.531Z,75.81
2018-10-21T10:21:53.473Z,75.42
2018-10-21T10:24:25.345Z,74.47
2018-10-21T10:26:54.826Z,74.52
2018-10-21T10:29:29.897Z,74.05
2018-10-21T10:31:58.783Z,74.65
2018-10-21T10:34:27.610Z,73.88
2018-10-21T10:36:57.152Z,75.59
2018-10-21T10:39:26.039Z,77.10
2018-10-21T10:41:54.959Z,78.08
2018-10-21T10:44:23.756Z,77.54
2018-10-21T10:46:55.289Z,76.05
2018-10-21T10:49:24.160Z,72.45
2018-10-21T10:51:53.788Z,71.15
2018-10-21T10:54:22.974Z,66.61
2018-10-21T10:56:51.929Z,64.33
2018-10-21T10:59:21.327Z,65.11
2018-10-21T11:01:50.180Z,67.21
2018-10-21T11:04:20.185Z,66.37
2018-10-21T11:06:49.149Z,65.50
2018-10-21T11:09:18.278Z,65.15
2018-10-21T11:11:47.740Z,64.14
2018-10-21T11:14:23.327Z,62.70
2018-10-21T11:16:53.944Z,63.11
2018-10-21T11:19:25.241Z,62.21
2018-10-21T11:21:56.081Z,62.24
2018-10-21T11:24:40.399Z,59.66
2018-10-21T11:27:09.390Z,61.30
2018-10-21T11:29:38.349Z,62.55
2018-10-21T11:32:08.005Z,60.85
2018-10-21T11:34:37.253Z,60.20
2018-10-21T11:37:06.189Z,59.77
2018-10-21T11:39:35.048Z,60.46
2018-10-21T11:42:05.385Z,60.58
2018-10-21T11:44:34.223Z,58.89
2018-10-21T11:47:03.097Z,61.00
2018-10-21T11:49:31.939Z,58.22
2018-10-21T11:52:01.807Z,58.59
2018-10-21T11:54:30.708Z,59.88
2018-10-21T11:56:59.527Z,57.92
2018-10-21T11:59:29.524Z,59.01
2018-10-21T12:01:59.417Z,57.06
2018-10-21T12:04:28.300Z,57.83
2018-10-21T12:06:59.890Z,56.08
2018-10-21T12:09:29.664Z,59.38
2018-10-21T12:11:59.103Z,55.28
2018-10-21T12:14:27.933Z,57.10
2018-10-21T12:16:57.372Z,55.59
2018-10-21T12:19:26.621Z,56.42
2018-10-21T12:21:56.942Z,57.68
2018-10-21T12:24:28.390Z,57.62
2018-10-21T12:26:59.578Z,58.91
2018-10-21T12:29:31.185Z,57.10
2018-10-21T12:32:00.918Z,58.24
2018-10-21T12:34:30.251Z,57.13
2018-10-21T12:36:59.158Z,58.05
2018-10-21T12:39:29.866Z,55.43
2018-10-21T12:42:00.849Z,56.66
2018-10-21T12:44:29.731Z,56.97
2018-10-21T12:46:59.557Z,58.65
2018-10-21T12:49:29.655Z,56.49
2018-10-21T12:51:58.666Z,56.63
2018-10-21T12:54:27.628Z,56.54
2018-10-21T12:56:58.856Z,59.20
2018-10-21T12:59:27.712Z,56.90
2018-10-21T13:01:57.495Z,58.19
2018-10-21T13:04:27.451Z,57.98
2018-10-21T13:06:56.975Z,55.30
2018-10-21T13:09:26.961Z,57.23
2018-10-21T13:11:57.591Z,56.02
2018-10-21T13:14:27.758Z,58.32
2018-10-21T13:16:56.730Z,55.70
2018-10-21T13:19:26.419Z,57.01
2018-10-21T13:21:57.228Z,56.85
2018-10-21T13:24:26.031Z,56.09
2018-10-21T13:26:55.686Z,56.05
2018-10-21T13:29:26.653Z,54.45
2018-10-21T13:31:57.258Z,55.24
2018-10-21T13:34:28.459Z,56.32
2018-10-21T13:36:57.740Z,55.75
2018-10-21T13:39:28.074Z,56.07
2018-10-21T13:41:57.854Z,56.49
2018-10-21T13:44:26.752Z,55.92
2018-10-21T13:46:56.526Z,56.50
2018-10-21T13:49:25.390Z,54.69
2018-10-21T13:51:55.123Z,55.79
2018-10-21T13:54:24.805Z,54.67
2018-10-21T13:56:56.450Z,55.16
2018-10-21T13:59:26.257Z,55.14
2018-10-21T14:01:55.407Z,55.44
2018-10-21T14:04:25.929Z,56.18
2018-10-21T14:06:55.748Z,54.75
2018-10-21T14:09:24.564Z,54.93
2018-10-21T14:11:53.539Z,55.48
2018-10-21T14:14:26.035Z,54.72
2018-10-21T14:16:57.212Z,54.01
2018-10-21T14:19:27.062Z,54.33
2018-10-21T14:21:57.363Z,54.70
2018-10-21T14:24:27.500Z,52.65
2018-10-21T14:26:56.340Z,53.24
2018-10-21T14:29:25.179Z,54.73
2018-10-21T14:31:55.829Z,56.15
2018-10-21T14:34:26.441Z,54.85
2018-10-21T14:36:58.391Z,55.55
2018-10-21T14:39:28.570Z,57.74
2018-10-21T14:41:57.440Z,59.50
2018-10-21T14:44:27.632Z,60.24
2018-10-21T14:46:56.923Z,58.62
2018-10-21T14:49:25.859Z,60.13
2018-10-21T14:51:54.686Z,61.55
2018-10-21T14:54:24.335Z,60.30
2018-10-21T14:56:56.286Z,61.06
2018-10-21T14:59:25.699Z,60.87
2018-10-21T15:01:55.815Z,60.12
2018-10-21T15:04:25.045Z,62.66
2018-10-21T15:07:01.451Z,63.79
2018-10-21T15:09:30.418Z,64.61
2018-10-21T15:12:04.328Z,65.41
2018-10-21T15:14:33.823Z,65.96
2018-10-21T15:17:05.179Z,65.81
2018-10-21T15:19:35.339Z,65.94
2018-10-21T15:22:05.469Z,66.63
2018-10-21T15:24:35.726Z,67.23
2018-10-21T15:27:05.330Z,67.02
2018-10-21T15:29:34.186Z,68.30
2018-10-21T15:32:03.578Z,69.72
2018-10-21T15:34:32.852Z,69.00
2018-10-21T15:37:01.662Z,69.54
2018-10-21T15:39:30.551Z,69.56
2018-10-21T15:41:59.367Z,69.58
2018-10-21T15:44:31.815Z,69.17
2018-10-21T15:47:01.806Z,69.51
2018-10-21T15:49:33.124Z,69.46
2018-10-21T15:52:02.919Z,70.60
2018-10-21T15:54:32.804Z,71.06
2018-10-21T15:57:01.594Z,71.45
2018-10-21T16:00:01.303Z,71.77
2018-10-21T16:02:32.983Z,71.99
2018-10-21T16:05:10.453Z,72.71
2018-10-21T16:07:43.689Z,72.87
2018-10-21T16:10:12.646Z,72.06
2018-10-21T16:12:41.525Z,72.21
2018-10-21T16:15:15.110Z,71.82
2018-10-21T16:18:07.411Z,72.91
2018-10-21T16:20:41.975Z,72.84
2018-10-21T16:27:08.185Z,72.94
2018-10-21T16:29:43.560Z,73.65
2018-10-21T16:32:15.415Z,73.87
2018-10-21T16:34:58.436Z,74.01
2018-10-21T16:37:57.584Z,73.17
2018-10-21T16:40:28.178Z,74.49
2018-10-21T16:42:58.278Z,73.57
2018-10-21T16:45:28.797Z,74.65
2018-10-21T16:47:59.797Z,74.83
2018-10-21T16:50:30.532Z,74.08
2018-10-21T16:53:03.092Z,74.89
2018-10-21T16:55:32.802Z,75.94
2018-10-21T16:58:04.652Z,75.87
2018-10-21T17:00:35.497Z,75.78
2018-10-21T17:03:05.441Z,75.81
2018-10-21T17:05:34.305Z,76.24
2018-10-21T17:08:05.246Z,77.10
2018-10-21T17:10:35.638Z,77.68
2018-10-21T17:13:12.924Z,76.93
2018-10-21T17:15:47.732Z,77.26
2018-10-21T17:18:20.694Z,77.40
2018-10-21T17:20:55.444Z,78.18
2018-10-21T17:23:26.455Z,76.56
2018-10-21T17:25:57.296Z,77.43
2018-10-21T17:28:28.520Z,77.86
2018-10-21T17:31:03.000Z,78.85
2018-10-21T17:33:35.342Z,78.91
2018-10-21T17:36:05.026Z,78.49
2018-10-21T17:38:37.380Z,78.95
2018-10-21T17:41:12.331Z,79.04
2018-10-21T17:43:43.391Z,78.38
2018-10-21T17:46:15.464Z,79.40
2018-10-21T17:48:44.303Z,79.76
2018-10-21T17:51:15.499Z,80.04
2018-10-21T17:53:44.331Z,79.70
2018-10-21T17:56:13.175Z,79.30
2018-10-21T17:58:42.032Z,80.33
2018-10-21T18:01:13.276Z,79.80
2018-10-21T18:03:43.372Z,80.00
2018-10-21T18:06:12.735Z,79.37
2018-10-21T18:08:42.618Z,80.22
2018-10-21T18:11:14.436Z,79.93
2018-10-21T18:13:43.619Z,80.79
2018-10-21T18:16:13.517Z,80.91
2018-10-21T18:18:44.674Z,80.74
2018-10-21T18:21:15.722Z,80.62
2018-10-21T18:23:45.778Z,80.51
2018-10-21T18:26:14.676Z,80.91
2018-10-21T18:28:44.903Z,80.63
2018-10-21T18:31:13.893Z,81.17
2018-10-21T18:33:43.046Z,81.81
2018-10-21T18:36:11.871Z,81.14
2018-10-21T18:38:45.181Z,81.24
2018-10-21T18:41:14.782Z,82.04
2018-10-21T18:43:44.088Z,81.92
2018-10-21T18:46:14.767Z,81.54
2018-10-21T18:48:45.247Z,82.30
2018-10-21T18:51:15.121Z,81.29
2018-10-21T18:53:45.148Z,81.27
2018-10-21T18:56:14.000Z,81.50
2018-10-21T18:58:42.864Z,81.28
2018-10-21T19:01:13.028Z,82.09
2018-10-21T19:03:43.807Z,82.88
2018-10-21T19:06:14.143Z,82.62
2018-10-21T19:08:43.476Z,81.70
2018-10-21T19:11:14.581Z,82.20
2018-10-21T19:13:45.437Z,82.61
2018-10-21T19:16:15.364Z,82.45
2018-10-21T19:18:46.583Z,82.97
2018-10-21T19:21:16.233Z,82.49
2018-10-21T19:23:45.104Z,82.61
2018-10-21T19:26:13.970Z,83.10
2018-10-21T19:28:47.680Z,83.40
2018-10-21T19:31:17.268Z,82.62
2018-10-21T19:33:49.066Z,83.69
2018-10-21T19:36:18.845Z,83.76
2018-10-21T19:38:48.298Z,83.03
2018-10-21T19:41:18.102Z,83.54
2018-10-21T19:43:49.398Z,83.76
2018-10-21T19:46:18.243Z,83.58
2018-10-21T19:48:49.074Z,83.71
2018-10-21T19:51:17.963Z,83.93
2018-10-21T19:53:49.868Z,83.96
2018-10-21T19:56:20.200Z,83.18
2018-10-21T19:58:56.450Z,83.51
2018-10-21T20:01:26.031Z,84.13
2018-10-21T20:03:57.057Z,83.57
2018-10-21T20:06:29.083Z,84.05
2018-10-21T20:09:00.518Z,84.15
2018-10-21T20:11:31.335Z,84.24
2018-10-21T20:14:01.878Z,84.99
2018-10-21T20:16:31.492Z,83.85
2018-10-21T20:19:00.394Z,84.69
2018-10-21T20:21:31.653Z,85.29
2018-10-21T20:24:01.435Z,84.88
2018-10-21T20:26:30.282Z,84.13
2018-10-21T20:29:00.699Z,84.20
2018-10-21T20:31:29.591Z,84.87
2018-10-21T20:34:04.569Z,83.48
2018-10-21T20:36:34.134Z,83.72
2018-10-21T20:39:12.548Z,84.33
2018-10-21T20:41:44.207Z,83.99
2018-10-21T20:44:14.687Z,84.83
2018-10-21T20:46:44.355Z,84.68
2018-10-21T20:49:15.555Z,84.34
2018-10-21T20:51:44.910Z,83.85
2018-10-21T20:54:15.018Z,84.38
2018-10-21T20:56:43.864Z,84.07
2018-10-21T20:59:12.702Z,84.93
2018-10-21T21:01:49.623Z,85.30
2018-10-21T21:04:19.463Z,85.43
2018-10-21T21:06:48.912Z,85.77
2018-10-21T21:09:17.724Z,85.20
2018-10-21T21:11:47.089Z,85.37
2018-10-21T21:14:16.555Z,84.89
2018-10-21T21:16:45.388Z,85.22
2018-10-21T21:19:14.980Z,85.82
2018-10-21T21:21:43.844Z,85.75
2018-10-21T21:24:12.713Z,85.88
2018-10-21T21:26:44.048Z,85.11
2018-10-21T21:29:13.765Z,84.80
2018-10-21T21:31:42.860Z,85.50
2018-10-21T21:34:13.519Z,86.12
2018-10-21T21:36:43.924Z,85.47
2018-10-21T21:39:14.486Z,86.39
2018-10-21T21:41:45.483Z,85.83
2018-10-21T21:44:15.456Z,86.99
2018-10-21T21:46:45.089Z,86.59
2018-10-21T21:49:14.578Z,87.33
2018-10-21T21:51:43.428Z,87.56
2018-10-21T21:54:13.688Z,86.73
2018-10-21T21:56:43.246Z,87.20
2018-10-21T21:59:12.079Z,87.09
2018-10-21T22:01:41.926Z,86.47
2018-10-21T22:04:11.122Z,86.89
2018-10-21T22:06:40.754Z,87.56
2018-10-21T22:09:13.761Z,87.71
2018-10-21T22:11:44.653Z,88.08
2018-10-21T22:14:14.439Z,87.48
2018-10-21T22:16:43.262Z,87.78
2018-10-21T22:19:12.601Z,87.10
2018-10-21T22:21:41.482Z,88.07
2018-10-21T22:24:12.343Z,88.42
2018-10-21T22:26:41.239Z,88.61
2018-10-21T22:29:11.796Z,90.16
2018-10-21T22:31:41.418Z,90.61
2018-10-21T22:34:13.819Z,92.56
2018-10-21T22:36:42.623Z,92.03
2018-10-21T22:39:11.452Z,91.15
2018-10-21T22:41:40.317Z,91.24
2018-10-21T22:44:09.147Z,91.93
2018-10-21T22:46:38.005Z,90.90
2018-10-21T22:49:07.264Z,90.95
2018-10-21T22:51:36.176Z,91.35
2018-10-21T22:54:05.165Z,91.89
2018-10-21T22:56:34.420Z,92.14
2018-10-21T22:59:03.856Z,92.10
2018-10-21T23:01:32.737Z,90.06
2018-10-21T23:04:02.094Z,90.06
2018-10-21T23:06:31.524Z,89.84
2018-10-21T23:09:00.396Z,89.21
2018-10-21T23:11:29.783Z,89.03
2018-10-21T23:13:58.639Z,89.59
2018-10-21T23:16:27.470Z,88.75
2018-10-21T23:19:10.987Z,89.60
2018-10-21T23:21:39.873Z,89.05
2018-10-21T23:24:09.550Z,89.26
2018-10-21T23:31:24.103Z,89.23
2018-10-21T23:33:54.689Z,88.75
2018-10-21T23:36:23.548Z,89.30
2018-10-21T23:38:52.343Z,88.85
2018-10-21T23:41:21.534Z,89.34
2018-10-21T23:43:51.103Z,90.19
2018-10-21T23:46:19.959Z,89.52
2018-10-21T23:48:48.898Z,89.52
2018-10-21T23:51:18.082Z,89.08
2018-10-21T23:53:46.937Z,90.11
2018-10-21T23:56:15.851Z,90.49
2018-10-21T23:58:44.774Z,89.35
